Time;durP1;ratioP1;P1;durP2;ratioP2;P2;SDS_P1;SDS_P2;PMS_P1;PMS_P2;Temp;Humidity;BMP_temperature;BMP_pressure;BME280_temperature;BME280_humidity;BME280_pressure;Samples;Min_cycle;Max_cycle;Signal;HPM_P1;HPM_P2
2022/03/20 00:00:47;;;;;;;23.60;13.00;;;;;;;;;;5011873;28;20112;-81
2022/03/20 00:03:14;;;;;;;20.85;11.52;;;;;;;;;;5006070;28;20053;-81
2022/03/20 00:05:40;;;;;;;19.42;11.65;;;;;;;;;;5025782;28;20030;-80
2022/03/20 00:08:10;;;;;;;26.63;12.40;;;;;;;;;;5027400;28;20026;-80
2022/03/20 00:10:36;;;;;;;19.85;12.13;;;;;;;;;;5024654;28;20022;-80
2022/03/20 00:13:12;;;;;;;25.17;11.75;;;;;;;;;;5021458;28;20026;-83
2022/03/20 00:15:42;;;;;;;21.90;12.25;;;;;;;;;;5021692;28;20033;-81
2022/03/20 00:18:09;;;;;;;18.52;11.57;;;;;;;;;;5025141;28;20080;-81
2022/03/20 00:20:47;;;;;;;21.35;12.27;;;;;;;;;;5025401;28;20059;-80
2022/03/20 00:23:13;;;;;;;22.83;12.68;;;;;;;;;;5036190;28;20120;-80
2022/03/20 00:25:42;;;;;;;24.17;12.55;;;;;;;;;;5020312;28;20061;-81
2022/03/20 00:28:08;;;;;;;20.48;11.95;;;;;;;;;;5003380;28;20100;-80
2022/03/20 00:30:35;;;;;;;21.48;12.40;;;;;;;;;;5003492;28;20018;-81
2022/03/20 00:33:00;;;;;;;22.67;12.38;;;;;;;;;;5020705;28;20067;-80
2022/03/20 00:35:25;;;;;;;24.45;11.95;;;;;;;;;;5020277;28;20021;-80
2022/03/20 00:37:51;;;;;;;22.30;12.25;;;;;;;;;;5020654;28;20037;-80
2022/03/20 00:40:17;;;;;;;25.08;13.20;;;;;;;;;;5020572;28;20025;-80
2022/03/20 00:42:42;;;;;;;22.50;12.93;;;;;;;;;;5040296;28;20460;-81
2022/03/20 00:45:08;;;;;;;20.60;11.43;;;;;;;;;;5021599;28;20036;-80
2022/03/20 00:47:33;;;;;;;22.80;13.38;;;;;;;;;;5018902;28;20105;-80
2022/03/20 00:49:58;;;;;;;27.60;13.60;;;;;;;;;;5033797;28;20017;-80
2022/03/20 00:52:24;;;;;;;26.92;14.77;;;;;;;;;;5037825;28;20030;-79
2022/03/20 00:54:50;;;;;;;28.20;14.20;;;;;;;;;;5021500;28;20107;-81
2022/03/20 00:57:18;;;;;;;24.05;14.45;;;;;;;;;;5011181;28;20022;-82
2022/03/20 00:59:43;;;;;;;25.23;13.52;;;;;;;;;;5020734;28;20036;-81
2022/03/20 01:02:09;;;;;;;22.42;13.25;;;;;;;;;;5019312;28;20033;-82
2022/03/20 01:04:36;;;;;;;23.92;13.38;;;;;;;;;;5001286;28;20097;-80
2022/03/20 01:07:03;;;;;;;21.73;12.15;;;;;;;;;;5012577;28;20365;-80
2022/03/20 01:09:29;;;;;;;21.08;12.40;;;;;;;;;;5019689;28;20018;-83
2022/03/20 01:11:55;;;;;;;24.92;12.27;;;;;;;;;;5015037;28;20172;-80
2022/03/20 01:14:25;;;;;;;22.52;12.50;;;;;;;;;;5021741;28;20033;-83
2022/03/20 01:16:53;;;;;;;26.20;13.40;;;;;;;;;;5004772;28;20093;-81
2022/03/20 01:19:19;;;;;;;21.02;12.80;;;;;;;;;;5001656;28;20034;-81
2022/03/20 01:21:44;;;;;;;22.88;14.07;;;;;;;;;;5012175;28;20100;-84
2022/03/20 01:24:10;;;;;;;25.60;13.50;;;;;;;;;;5016644;28;20094;-81
2022/03/20 01:26:36;;;;;;;22.58;12.82;;;;;;;;;;5013090;28;20435;-81
2022/03/20 01:29:04;;;;;;;22.63;13.32;;;;;;;;;;5001425;28;20073;-80
2022/03/20 01:31:31;;;;;;;26.60;12.80;;;;;;;;;;5020907;28;20032;-82
2022/03/20 01:33:59;;;;;;;23.45;13.10;;;;;;;;;;5021497;28;20030;-81
2022/03/20 01:36:25;;;;;;;21.27;12.52;;;;;;;;;;5006052;28;20081;-82
2022/03/20 01:38:51;;;;;;;24.05;12.57;;;;;;;;;;5021796;28;20041;-79
2022/03/20 01:41:16;;;;;;;23.20;12.65;;;;;;;;;;5016357;28;20377;-80
2022/03/20 01:43:53;;;;;;;25.00;13.60;;;;;;;;;;5005684;28;20037;-81
2022/03/20 01:46:19;;;;;;;22.23;12.65;;;;;;;;;;5006334;28;20121;-81
2022/03/20 01:48:44;;;;;;;25.30;13.23;;;;;;;;;;5003475;28;20048;-80
2022/03/20 01:51:11;;;;;;;20.92;12.25;;;;;;;;;;4995448;28;20026;-83
2022/03/20 01:53:37;;;;;;;22.83;13.10;;;;;;;;;;5017675;28;20068;-82
2022/03/20 01:56:03;;;;;;;22.38;13.35;;;;;;;;;;5013866;28;20323;-84
2022/03/20 01:58:28;;;;;;;25.30;12.23;;;;;;;;;;4997167;28;20041;-81
2022/03/20 02:00:54;;;;;;;21.25;11.70;;;;;;;;;;5017266;28;20430;-82
2022/03/20 02:03:19;;;;;;;22.27;11.93;;;;;;;;;;5001722;28;20060;-81
2022/03/20 02:05:45;;;;;;;18.88;11.30;;;;;;;;;;5018595;28;20026;-81
2022/03/20 02:08:15;;;;;;;19.92;10.85;;;;;;;;;;5015586;28;20022;-81
2022/03/20 02:10:43;;;;;;;23.67;10.43;;;;;;;;;;5018968;28;20396;-81
2022/03/20 02:13:08;;;;;;;21.15;10.85;;;;;;;;;;4998962;28;20488;-81
2022/03/20 02:15:36;;;;;;;21.92;10.75;;;;;;;;;;5000145;28;20480;-80
2022/03/20 02:18:02;;;;;;;18.65;10.75;;;;;;;;;;5015922;28;20021;-80
2022/03/20 02:20:29;;;;;;;19.80;10.68;;;;;;;;;;5007246;28;20076;-81
2022/03/20 02:22:55;;;;;;;17.90;11.52;;;;;;;;;;4999240;28;20036;-81
2022/03/20 02:25:20;;;;;;;19.27;11.13;;;;;;;;;;5018402;28;20026;-81
2022/03/20 02:27:46;;;;;;;18.80;11.48;;;;;;;;;;5016406;28;20030;-81
2022/03/20 02:30:18;;;;;;;17.67;10.85;;;;;;;;;;5018570;28;20022;-81
2022/03/20 02:32:49;;;;;;;23.65;12.30;;;;;;;;;;5019482;28;20053;-80
2022/03/20 02:35:17;;;;;;;21.33;10.85;;;;;;;;;;5015927;28;20026;-81
2022/03/20 02:37:53;;;;;;;18.45;11.05;;;;;;;;;;5017491;28;20025;-80
2022/03/20 02:40:21;;;;;;;20.25;11.95;;;;;;;;;;5015515;28;20018;-81
2022/03/20 02:42:51;;;;;;;23.17;11.73;;;;;;;;;;5016634;28;20488;-81
2022/03/20 02:45:29;;;;;;;24.70;11.43;;;;;;;;;;5021974;28;20018;-81
2022/03/20 02:47:56;;;;;;;21.10;10.98;;;;;;;;;;5017198;28;20046;-82
2022/03/20 02:50:24;;;;;;;21.20;11.43;;;;;;;;;;5016350;28;20021;-81
2022/03/20 02:53:11;;;;;;;20.50;11.13;;;;;;;;;;5018983;28;20025;-80
2022/03/20 02:55:38;;;;;;;21.63;11.65;;;;;;;;;;5015598;28;20029;-81
2022/03/20 02:58:12;;;;;;;20.70;11.27;;;;;;;;;;4998700;28;20091;-80
2022/03/20 03:00:40;;;;;;;19.58;11.20;;;;;;;;;;5016986;28;20021;-80
2022/03/20 03:03:10;;;;;;;21.60;11.93;;;;;;;;;;5015342;28;20022;-81
2022/03/20 03:05:37;;;;;;;22.38;11.95;;;;;;;;;;5014653;28;20038;-81
2022/03/20 03:10:56;;;;;;;20.80;10.73;;;;;;;;;;5015795;28;20021;-80
2022/03/20 03:13:42;;;;;;;18.80;10.82;;;;;;;;;;5011771;28;20032;-80
2022/03/20 03:16:11;;;;;;;20.38;11.55;;;;;;;;;;5018815;28;20068;-80
2022/03/20 03:18:39;;;;;;;19.63;11.25;;;;;;;;;;5019384;28;20036;-81
2022/03/20 03:21:05;;;;;;;18.10;11.32;;;;;;;;;;5001276;28;20407;-81
2022/03/20 03:23:31;;;;;;;17.45;10.77;;;;;;;;;;5027265;28;20022;-80
2022/03/20 03:25:56;;;;;;;17.27;10.15;;;;;;;;;;5031878;28;20042;-81
2022/03/20 03:28:28;;;;;;;16.48;10.57;;;;;;;;;;5014764;28;20084;-80
2022/03/20 03:30:54;;;;;;;19.92;11.00;;;;;;;;;;5015265;28;20022;-81
2022/03/20 03:33:21;;;;;;;18.92;11.25;;;;;;;;;;5015781;28;20037;-81
2022/03/20 03:35:53;;;;;;;20.58;11.02;;;;;;;;;;5032913;28;20026;-81
2022/03/20 03:38:21;;;;;;;21.00;11.85;;;;;;;;;;5040888;28;20022;-81
2022/03/20 03:40:48;;;;;;;23.63;12.07;;;;;;;;;;5039320;28;20022;-82
2022/03/20 03:43:15;;;;;;;20.95;11.85;;;;;;;;;;5013049;28;20519;-81
2022/03/20 03:45:41;;;;;;;26.67;12.43;;;;;;;;;;5012299;28;20041;-81
2022/03/20 03:48:08;;;;;;;22.50;12.55;;;;;;;;;;5024315;28;20053;-82
2022/03/20 03:50:36;;;;;;;22.00;12.40;;;;;;;;;;5028861;28;20026;-81
2022/03/20 03:53:03;;;;;;;19.92;11.30;;;;;;;;;;5026446;28;20033;-81
2022/03/20 03:55:30;;;;;;;26.05;12.57;;;;;;;;;;5024603;28;20033;-81
2022/03/20 03:57:55;;;;;;;20.55;11.70;;;;;;;;;;5006099;28;20033;-81
2022/03/20 04:00:21;;;;;;;19.33;9.93;;;;;;;;;;5024110;28;20704;-82
2022/03/20 04:02:48;;;;;;;20.63;11.02;;;;;;;;;;5022362;28;20029;-80
2022/03/20 04:05:15;;;;;;;20.23;11.02;;;;;;;;;;5006085;28;20411;-81
2022/03/20 04:07:41;;;;;;;22.15;10.55;;;;;;;;;;5030428;28;20026;-81
2022/03/20 04:10:07;;;;;;;22.00;11.35;;;;;;;;;;5033953;28;20392;-82
2022/03/20 04:12:36;;;;;;;24.40;11.45;;;;;;;;;;5022688;28;20034;-81
2022/03/20 04:15:03;;;;;;;21.30;11.60;;;;;;;;;;5032410;28;20034;-82
2022/03/20 04:17:32;;;;;;;18.73;11.07;;;;;;;;;;5023665;28;20038;-80
2022/03/20 04:19:58;;;;;;;20.90;11.45;;;;;;;;;;5026596;28;20022;-81
2022/03/20 04:22:27;;;;;;;22.38;11.60;;;;;;;;;;5017408;28;20033;-81
2022/03/20 04:24:53;;;;;;;21.80;11.70;;;;;;;;;;5007849;28;20029;-81
2022/03/20 04:27:20;;;;;;;18.65;10.93;;;;;;;;;;5023996;28;20022;-81
2022/03/20 04:29:46;;;;;;;18.63;10.45;;;;;;;;;;5006474;28;20026;-81
2022/03/20 04:32:14;;;;;;;23.92;11.73;;;;;;;;;;5022737;28;20060;-81
2022/03/20 04:34:42;;;;;;;23.95;12.10;;;;;;;;;;5023414;28;20072;-80
2022/03/20 04:37:10;;;;;;;21.42;11.52;;;;;;;;;;5024414;28;20037;-81
2022/03/20 04:39:36;;;;;;;19.45;11.73;;;;;;;;;;5014581;28;20018;-80
2022/03/20 04:42:02;;;;;;;18.17;11.00;;;;;;;;;;5005621;28;20030;-81
2022/03/20 04:44:28;;;;;;;19.42;11.23;;;;;;;;;;5023473;28;20025;-81
2022/03/20 04:46:54;;;;;;;20.20;12.10;;;;;;;;;;5022937;28;20090;-81
2022/03/20 05:00:10;;;;;;;21.73;12.18;;;;;;;;;;5043309;28;20084;-81
2022/03/20 05:02:35;;;;;;;24.35;12.57;;;;;;;;;;5042485;28;20025;-80
2022/03/20 05:05:01;;;;;;;21.67;12.52;;;;;;;;;;5057036;23;20386;-81
2022/03/20 05:07:26;;;;;;;20.77;11.77;;;;;;;;;;5005152;28;20448;-81
2022/03/20 05:15:20;;;;;;;22.38;12.45;;;;;;;;;;5014687;28;20040;-81
2022/03/20 05:17:45;;;;;;;22.45;12.25;;;;;;;;;;5018285;28;20026;-81
2022/03/20 05:20:11;;;;;;;22.48;12.68;;;;;;;;;;5016721;28;20111;-81
2022/03/20 05:22:38;;;;;;;22.85;12.07;;;;;;;;;;5021496;28;20052;-81
2022/03/20 05:25:12;;;;;;;26.13;12.73;;;;;;;;;;5021998;28;20028;-81
2022/03/20 05:27:37;;;;;;;23.08;12.48;;;;;;;;;;5042983;28;20033;-81
2022/03/20 05:30:05;;;;;;;31.70;13.40;;;;;;;;;;5043410;28;20080;-81
2022/03/20 05:32:31;;;;;;;22.60;12.68;;;;;;;;;;5025942;28;20368;-81
2022/03/20 05:34:57;;;;;;;24.10;13.18;;;;;;;;;;5043219;28;20475;-81
2022/03/20 05:37:22;;;;;;;25.30;13.10;;;;;;;;;;5039202;28;20047;-82
2022/03/20 05:39:47;;;;;;;28.95;13.07;;;;;;;;;;5043579;28;20021;-81
2022/03/20 05:42:14;;;;;;;22.08;13.38;;;;;;;;;;5044639;28;20052;-81
2022/03/20 05:44:40;;;;;;;21.67;12.55;;;;;;;;;;5037796;28;20087;-81
2022/03/20 05:47:06;;;;;;;21.90;12.85;;;;;;;;;;5037215;28;20022;-81
2022/03/20 05:49:32;;;;;;;22.35;12.57;;;;;;;;;;5024208;28;20431;-81
2022/03/20 05:51:59;;;;;;;29.00;14.02;;;;;;;;;;5026740;28;20033;-82
2022/03/20 05:54:24;;;;;;;25.58;14.55;;;;;;;;;;5043930;28;20025;-82
2022/03/20 05:59:37;;;;;;;24.42;14.23;;;;;;;;;;5044993;28;20092;-81
2022/03/20 06:02:03;;;;;;;29.23;13.40;;;;;;;;;;5044657;28;20086;-80
2022/03/20 06:04:31;;;;;;;22.40;14.75;;;;;;;;;;5045018;28;20100;-81
2022/03/20 06:06:58;;;;;;;25.05;13.55;;;;;;;;;;5039700;28;20049;-82
2022/03/20 06:09:23;;;;;;;28.25;14.77;;;;;;;;;;5044792;28;20048;-81
2022/03/20 06:11:48;;;;;;;30.30;14.15;;;;;;;;;;5045597;28;20017;-81
2022/03/20 06:14:15;;;;;;;23.33;12.98;;;;;;;;;;5035290;28;20024;-81
2022/03/20 06:16:43;;;;;;;21.27;13.50;;;;;;;;;;5025710;28;20030;-80
2022/03/20 06:19:08;;;;;;;23.63;13.32;;;;;;;;;;5024492;28;20022;-81
2022/03/20 06:21:34;;;;;;;21.15;13.15;;;;;;;;;;5036241;28;20094;-81
2022/03/20 06:23:59;;;;;;;25.27;14.20;;;;;;;;;;5042567;28;20060;-81
2022/03/20 06:26:25;;;;;;;27.00;14.40;;;;;;;;;;5042621;28;20021;-81
2022/03/20 06:28:51;;;;;;;26.40;14.63;;;;;;;;;;5025998;28;20026;-80
2022/03/20 06:31:19;;;;;;;24.73;14.60;;;;;;;;;;5004224;28;20014;-81
2022/03/20 06:33:44;;;;;;;22.88;14.10;;;;;;;;;;5022569;28;20022;-81
2022/03/20 06:36:10;;;;;;;25.10;14.85;;;;;;;;;;5023956;28;20024;-81
2022/03/20 06:38:36;;;;;;;26.05;13.95;;;;;;;;;;5033761;28;20505;-81
2022/03/20 06:41:07;;;;;;;27.38;14.73;;;;;;;;;;5022854;28;20022;-81
2022/03/20 06:43:35;;;;;;;25.83;14.10;;;;;;;;;;5022607;28;20048;-81
2022/03/20 06:46:02;;;;;;;26.40;14.32;;;;;;;;;;5031937;28;20048;-81
2022/03/20 06:48:27;;;;;;;23.38;14.02;;;;;;;;;;5036621;28;20037;-81
2022/03/20 06:50:53;;;;;;;24.48;14.20;;;;;;;;;;5025084;28;20028;-81
2022/03/20 06:53:18;;;;;;;26.38;14.65;;;;;;;;;;5025033;28;20028;-81
2022/03/20 06:55:45;;;;;;;25.90;15.20;;;;;;;;;;5042449;28;20036;-81
2022/03/20 06:58:11;;;;;;;30.75;15.25;;;;;;;;;;5043152;28;20530;-81
2022/03/20 07:00:37;;;;;;;25.15;15.13;;;;;;;;;;5043285;28;20037;-80
2022/03/20 07:03:06;;;;;;;26.73;15.85;;;;;;;;;;5043126;28;20025;-81
2022/03/20 07:05:32;;;;;;;23.55;14.00;;;;;;;;;;5038809;28;20108;-81
2022/03/20 07:07:58;;;;;;;24.25;14.82;;;;;;;;;;5036502;28;20364;-81
2022/03/20 07:10:25;;;;;;;30.13;16.70;;;;;;;;;;5042255;28;20097;-81
2022/03/20 07:13:48;;;;;;;26.17;15.02;;;;;;;;;;5017870;28;20101;-82
2022/03/20 07:15:38;;;;;;;24.40;14.50;;;;;;;;;;5030222;28;20021;-83
2022/03/20 07:18:03;;;;;;;27.10;15.80;;;;;;;;;;5034523;28;20033;-81
2022/03/20 07:20:29;;;;;;;26.50;15.77;;;;;;;;;;5034409;28;20063;-81
2022/03/20 07:22:54;;;;;;;25.90;15.52;;;;;;;;;;5042478;28;20021;-81
2022/03/20 07:30:47;;;;;;;27.42;15.68;;;;;;;;;;5021856;28;20079;-81
2022/03/20 07:33:13;;;;;;;25.00;16.27;;;;;;;;;;5022276;28;20082;-81
2022/03/20 07:35:38;;;;;;;29.52;15.95;;;;;;;;;;5018707;28;20049;-84
2022/03/20 07:38:03;;;;;;;27.30;16.02;;;;;;;;;;5017597;28;20021;-85
2022/03/20 07:40:29;;;;;;;23.02;14.57;;;;;;;;;;4988961;28;20072;-87
2022/03/20 07:42:55;;;;;;;27.95;16.00;;;;;;;;;;5008673;28;20089;-86
2022/03/20 07:45:22;;;;;;;24.17;15.30;;;;;;;;;;5012134;28;20068;-84
2022/03/20 07:47:48;;;;;;;26.15;15.88;;;;;;;;;;5019426;28;20085;-83
2022/03/20 07:50:13;;;;;;;27.33;17.25;;;;;;;;;;5020178;28;20042;-86
2022/03/20 07:52:38;;;;;;;24.92;15.07;;;;;;;;;;5034521;28;20104;-86
2022/03/20 07:55:04;;;;;;;23.15;14.90;;;;;;;;;;5039617;28;20108;-85
2022/03/20 07:57:30;;;;;;;25.50;15.93;;;;;;;;;;5039274;28;20049;-85
2022/03/20 07:59:56;;;;;;;26.77;16.38;;;;;;;;;;5038199;28;20026;-86
2022/03/20 08:02:23;;;;;;;26.90;15.85;;;;;;;;;;5020901;28;20075;-85
2022/03/20 08:04:48;;;;;;;27.33;15.18;;;;;;;;;;5037001;28;20061;-86
2022/03/20 08:07:14;;;;;;;28.42;15.38;;;;;;;;;;5038616;28;20024;-85
2022/03/20 08:09:39;;;;;;;27.17;16.15;;;;;;;;;;5038005;28;20017;-85
2022/03/20 08:12:07;;;;;;;25.67;15.15;;;;;;;;;;5021033;28;20032;-86
2022/03/20 08:14:36;;;;;;;29.38;16.58;;;;;;;;;;5022985;28;20069;-87
2022/03/20 08:17:06;;;;;;;23.52;15.18;;;;;;;;;;5036364;28;20026;-83
2022/03/20 08:19:32;;;;;;;25.10;16.02;;;;;;;;;;5039874;28;20013;-84
2022/03/20 08:21:59;;;;;;;27.25;15.43;;;;;;;;;;5043137;28;20030;-86
2022/03/20 08:24:24;;;;;;;24.60;14.73;;;;;;;;;;5027316;28;20022;-85
2022/03/20 08:26:50;;;;;;;23.60;14.85;;;;;;;;;;5023331;28;20377;-86
2022/03/20 08:29:15;;;;;;;21.20;13.90;;;;;;;;;;5021903;28;20021;-84
2022/03/20 08:31:45;;;;;;;22.20;15.02;;;;;;;;;;5021098;28;20037;-82
2022/03/20 08:34:13;;;;;;;24.85;15.95;;;;;;;;;;5038322;28;20112;-82
2022/03/20 08:36:39;;;;;;;26.33;15.88;;;;;;;;;;5039998;28;20024;-81
2022/03/20 08:39:05;;;;;;;26.63;16.25;;;;;;;;;;5041180;28;20116;-82
2022/03/20 08:41:31;;;;;;;27.05;15.82;;;;;;;;;;5040548;28;20069;-83
2022/03/20 08:43:57;;;;;;;23.73;16.08;;;;;;;;;;5039826;28;20032;-83
2022/03/20 08:46:23;;;;;;;24.40;15.70;;;;;;;;;;5023194;28;20025;-84
2022/03/20 08:48:48;;;;;;;25.40;16.20;;;;;;;;;;5035221;28;20148;-83
2022/03/20 08:51:14;;;;;;;24.65;15.38;;;;;;;;;;5040488;28;20025;-82
2022/03/20 08:53:39;;;;;;;22.67;14.98;;;;;;;;;;5041145;28;20032;-83
2022/03/20 08:56:05;;;;;;;23.83;16.25;;;;;;;;;;5040979;28;20032;-82
2022/03/20 08:58:41;;;;;;;23.35;15.45;;;;;;;;;;5022056;28;20112;-83
2022/03/20 09:01:15;;;;;;;26.65;15.77;;;;;;;;;;5021741;28;20044;-85
2022/03/20 09:03:40;;;;;;;27.23;16.50;;;;;;;;;;5021981;28;20017;-82
2022/03/20 09:06:06;;;;;;;23.13;15.63;;;;;;;;;;5022048;28;20117;-82
2022/03/20 09:08:31;;;;;;;25.92;15.80;;;;;;;;;;5021537;28;20673;-82
2022/03/20 09:10:59;;;;;;;25.30;15.43;;;;;;;;;;5039504;28;20017;-84
2022/03/20 09:13:25;;;;;;;25.92;15.63;;;;;;;;;;5014841;28;20021;-82
2022/03/20 09:18:59;;;;;;;26.65;15.38;;;;;;;;;;5015232;28;20104;-82
2022/03/20 09:21:19;;;;;;;26.17;15.65;;;;;;;;;;5039330;28;20028;-82
2022/03/20 09:23:45;;;;;;;25.67;15.52;;;;;;;;;;5039473;28;20055;-82
2022/03/20 09:26:10;;;;;;;25.35;15.27;;;;;;;;;;5039726;28;20025;-82
2022/03/20 09:28:36;;;;;;;25.90;15.63;;;;;;;;;;5023239;28;20030;-82
2022/03/20 09:31:01;;;;;;;28.02;15.90;;;;;;;;;;5022964;28;20112;-81
2022/03/20 09:33:28;;;;;;;26.77;15.93;;;;;;;;;;5040677;28;20033;-82
2022/03/20 09:35:53;;;;;;;24.20;16.30;;;;;;;;;;5003098;28;20030;-82
2022/03/20 09:38:20;;;;;;;25.45;16.25;;;;;;;;;;5040288;28;20032;-82
2022/03/20 09:40:46;;;;;;;25.23;15.80;;;;;;;;;;5040051;28;20021;-82
2022/03/20 09:43:12;;;;;;;27.63;16.63;;;;;;;;;;5039869;28;20032;-82
2022/03/20 09:45:38;;;;;;;25.33;15.98;;;;;;;;;;5034138;28;20476;-81
2022/03/20 09:48:04;;;;;;;23.38;14.77;;;;;;;;;;5020057;28;20029;-82
2022/03/20 09:50:30;;;;;;;26.73;15.63;;;;;;;;;;5029551;28;20020;-83
2022/03/20 09:52:57;;;;;;;23.50;16.15;;;;;;;;;;5021529;28;20057;-83
2022/03/20 09:55:22;;;;;;;25.10;15.13;;;;;;;;;;5020573;28;20419;-82
2022/03/20 09:57:48;;;;;;;26.92;15.77;;;;;;;;;;5038109;28;20027;-81
2022/03/20 10:00:16;;;;;;;25.70;15.30;;;;;;;;;;5037541;28;20025;-83
2022/03/20 10:02:42;;;;;;;25.40;15.77;;;;;;;;;;5007719;28;20026;-82
2022/03/20 10:05:09;;;;;;;26.65;15.85;;;;;;;;;;5006586;28;20049;-83
2022/03/20 10:07:40;;;;;;;23.65;15.82;;;;;;;;;;5004632;28;20017;-82
2022/03/20 10:10:11;;;;;;;24.05;15.75;;;;;;;;;;4984564;28;20022;-82
2022/03/20 10:12:41;;;;;;;29.02;15.27;;;;;;;;;;5001909;28;20049;-83
2022/03/20 10:15:08;;;;;;;26.60;15.27;;;;;;;;;;5030690;28;20500;-82
2022/03/20 10:17:33;;;;;;;21.33;12.20;;;;;;;;;;5022040;28;20152;-82
2022/03/20 10:20:16;;;;;;;22.00;13.20;;;;;;;;;;5018042;28;20064;-83
2022/03/20 10:22:42;;;;;;;27.38;12.88;;;;;;;;;;5038381;28;20033;-82
2022/03/20 10:25:11;;;;;;;23.42;12.85;;;;;;;;;;5038807;28;20025;-82
2022/03/20 10:27:37;;;;;;;23.45;13.63;;;;;;;;;;5039038;28;20029;-82
2022/03/20 10:30:07;;;;;;;20.58;12.70;;;;;;;;;;5038298;28;20064;-82
2022/03/20 10:32:33;;;;;;;21.85;13.23;;;;;;;;;;5020762;28;20029;-81
2022/03/20 10:35:00;;;;;;;21.88;13.60;;;;;;;;;;5037604;28;20032;-81
2022/03/20 10:37:47;;;;;;;24.67;13.38;;;;;;;;;;5036963;28;20044;-82
2022/03/20 10:40:18;;;;;;;24.13;12.85;;;;;;;;;;5036941;28;20025;-82
2022/03/20 10:43:06;;;;;;;21.23;13.15;;;;;;;;;;5021514;28;20128;-81
2022/03/20 10:45:48;;;;;;;24.45;12.38;;;;;;;;;;5036491;28;20053;-82
2022/03/20 10:48:19;;;;;;;22.73;13.82;;;;;;;;;;5037509;28;20029;-81
2022/03/20 10:50:47;;;;;;;22.08;12.73;;;;;;;;;;5005161;28;20567;-82
2022/03/20 10:53:12;;;;;;;25.42;11.80;;;;;;;;;;5018499;28;20052;-81
2022/03/20 10:55:38;;;;;;;20.27;12.68;;;;;;;;;;5018884;28;20029;-80
2022/03/20 10:58:26;;;;;;;20.42;12.57;;;;;;;;;;5036609;28;20451;-83
2022/03/20 11:00:52;;;;;;;26.33;13.00;;;;;;;;;;5026208;28;20018;-81
2022/03/20 11:03:22;;;;;;;19.85;12.07;;;;;;;;;;4999031;28;20117;-82
2022/03/20 11:05:48;;;;;;;28.17;12.57;;;;;;;;;;4998796;28;20603;-81
2022/03/20 11:08:13;;;;;;;21.98;11.48;;;;;;;;;;4999130;28;20446;-81
2022/03/20 11:10:43;;;;;;;20.45;11.38;;;;;;;;;;5008382;28;20524;-82
2022/03/20 11:13:08;;;;;;;19.73;12.25;;;;;;;;;;5012590;28;20093;-81
2022/03/20 11:15:44;;;;;;;18.42;10.95;;;;;;;;;;5021090;28;20045;-82
2022/03/20 11:18:12;;;;;;;19.08;10.50;;;;;;;;;;5019163;28;20064;-82
2022/03/20 11:20:43;;;;;;;18.08;9.02;;;;;;;;;;5017127;28;20029;-82
2022/03/20 11:23:11;;;;;;;18.38;10.65;;;;;;;;;;5017021;28;20030;-82
2022/03/20 11:25:37;;;;;;;21.23;11.73;;;;;;;;;;5017002;28;20496;-82
2022/03/20 11:28:05;;;;;;;17.75;11.23;;;;;;;;;;5017222;28;20022;-82
2022/03/20 11:30:32;;;;;;;18.63;10.85;;;;;;;;;;5017015;28;20022;-82
2022/03/20 11:33:02;;;;;;;22.27;10.68;;;;;;;;;;5017249;28;20094;-82
2022/03/20 11:35:31;;;;;;;17.98;9.90;;;;;;;;;;5016667;28;20392;-82
2022/03/20 11:38:12;;;;;;;18.77;8.30;;;;;;;;;;4999839;28;20026;-82
2022/03/20 11:41:11;;;;;;;18.07;8.27;;;;;;;;;;4984509;28;20022;-82
2022/03/20 11:43:43;;;;;;;20.02;8.05;;;;;;;;;;4980636;28;20046;-82
2022/03/20 11:46:34;;;;;;;;;;;;;;;;;;5006209;28;20029;-82
2022/03/20 11:49:17;;;;;;;18.85;11.10;;;;;;;;;;5001706;28;20371;-82
2022/03/20 11:52:07;;;;;;;20.55;10.90;;;;;;;;;;5031799;28;20032;-82
2022/03/20 11:54:41;;;;;;;25.05;11.57;;;;;;;;;;5041229;28;20033;-82
2022/03/20 11:57:29;;;;;;;21.73;10.50;;;;;;;;;;5041775;28;20104;-81
2022/03/20 11:59:56;;;;;;;22.55;11.60;;;;;;;;;;5041772;28;20049;-82
2022/03/20 12:02:33;;;;;;;18.88;11.27;;;;;;;;;;5041407;28;20021;-82
2022/03/20 12:05:21;;;;;;;25.90;9.98;;;;;;;;;;5040521;28;20033;-82
2022/03/20 12:08:05;;;;;;;19.48;10.52;;;;;;;;;;5040544;28;20376;-83
2022/03/20 12:11:01;;;;;;;25.42;11.43;;;;;;;;;;5040743;28;20056;-83
2022/03/20 12:13:32;;;;;;;18.95;10.90;;;;;;;;;;5040637;28;20511;-82
2022/03/20 12:15:58;;;;;;;29.23;12.55;;;;;;;;;;5013107;28;20029;-83
2022/03/20 12:18:23;;;;;;;21.55;12.82;;;;;;;;;;5040551;28;20451;-82
2022/03/20 12:20:49;;;;;;;22.55;12.85;;;;;;;;;;5027357;28;20049;-82
2022/03/20 12:23:29;;;;;;;23.23;13.13;;;;;;;;;;5035825;28;20026;-82
2022/03/20 12:25:58;;;;;;;23.63;12.80;;;;;;;;;;5002260;28;20128;-82
2022/03/20 12:28:32;;;;;;;21.88;12.77;;;;;;;;;;5020138;28;20025;-82
2022/03/20 12:30:58;;;;;;;23.45;12.23;;;;;;;;;;5020561;28;20030;-83
2022/03/20 12:33:27;;;;;;;23.58;12.57;;;;;;;;;;5019957;28;20045;-82
2022/03/20 12:35:54;;;;;;;17.00;12.02;;;;;;;;;;5020197;28;20022;-82
2022/03/20 12:38:34;;;;;;;23.45;11.50;;;;;;;;;;5020061;28;20050;-82
2022/03/20 12:41:08;;;;;;;26.73;12.68;;;;;;;;;;5014915;28;20032;-82
2022/03/20 12:43:33;;;;;;;22.70;12.55;;;;;;;;;;5000578;28;20041;-83
2022/03/20 12:46:00;;;;;;;20.83;12.05;;;;;;;;;;5002799;28;20101;-83
2022/03/20 12:48:30;;;;;;;24.75;12.20;;;;;;;;;;5006175;28;21444;-84
2022/03/20 12:51:01;;;;;;;21.73;11.73;;;;;;;;;;5036572;28;20451;-82
2022/03/20 12:53:43;;;;;;;21.00;12.10;;;;;;;;;;5039838;28;20479;-82
2022/03/20 12:58:53;;;;;;;20.15;10.95;;;;;;;;;;5039467;28;20028;-84
2022/03/20 13:01:19;;;;;;;19.98;10.45;;;;;;;;;;4985703;28;20018;-83
2022/03/20 13:03:45;;;;;;;20.70;10.40;;;;;;;;;;5002166;28;20019;-80
2022/03/20 13:06:10;;;;;;;19.05;10.77;;;;;;;;;;4998984;28;20030;-80
2022/03/20 13:08:38;;;;;;;19.10;10.70;;;;;;;;;;4999156;28;20108;-80
2022/03/20 13:13:58;;;;;;;17.02;10.00;;;;;;;;;;5022551;28;20029;-81
2022/03/20 13:16:26;;;;;;;14.67;9.13;;;;;;;;;;5021732;28;20022;-84
2022/03/20 13:18:51;;;;;;;17.92;9.95;;;;;;;;;;5018377;28;20634;-82
2022/03/20 13:21:17;;;;;;;16.60;10.50;;;;;;;;;;5023997;28;20028;-84
2022/03/20 13:23:45;;;;;;;23.45;12.27;;;;;;;;;;5027440;28;20030;-81
2022/03/20 13:26:14;;;;;;;20.42;10.95;;;;;;;;;;5016104;28;20028;-83
2022/03/20 13:28:40;;;;;;;21.02;11.75;;;;;;;;;;5004884;28;20053;-82
2022/03/20 13:31:23;;;;;;;19.95;10.75;;;;;;;;;;5012481;28;20469;-81
2022/03/20 13:33:59;;;;;;;20.85;11.13;;;;;;;;;;4984778;28;20029;-81
2022/03/20 13:36:34;;;;;;;30.70;13.82;;;;;;;;;;4982075;28;20036;-82
2022/03/20 13:39:00;;;;;;;17.40;9.55;;;;;;;;;;4999182;28;20532;-83
2022/03/20 13:41:27;;;;;;;16.08;9.70;;;;;;;;;;5002287;28;20030;-85
2022/03/20 13:44:03;;;;;;;16.58;8.95;;;;;;;;;;4986221;28;20072;-85
2022/03/20 13:46:36;;;;;;;17.38;9.57;;;;;;;;;;4980723;28;20503;-80
2022/03/20 13:49:05;;;;;;;20.77;10.23;;;;;;;;;;4999282;28;20026;-81
2022/03/20 13:51:32;;;;;;;18.63;9.65;;;;;;;;;;5037013;28;20455;-81
2022/03/20 13:54:14;;;;;;;17.90;9.30;;;;;;;;;;5038183;28;20460;-82
2022/03/20 13:56:41;;;;;;;16.75;8.60;;;;;;;;;;5011559;28;20022;-84
2022/03/20 13:59:12;;;;;;;18.27;9.40;;;;;;;;;;4996233;28;20571;-82
2022/03/20 14:01:54;;;;;;;19.47;9.23;;;;;;;;;;5008110;28;20040;-81
2022/03/20 14:04:21;;;;;;;20.98;8.52;;;;;;;;;;5003554;28;20030;-81
2022/03/20 14:07:00;;;;;;;15.68;8.93;;;;;;;;;;4996001;28;20473;-82
2022/03/20 14:12:51;;;;;;;21.55;8.57;;;;;;;;;;5001623;28;20104;-82
2022/03/20 14:15:17;;;;;;;19.77;10.23;;;;;;;;;;5032988;28;20089;-81
2022/03/20 14:17:50;;;;;;;17.98;9.68;;;;;;;;;;5032073;28;20052;-82
2022/03/20 14:20:22;;;;;;;18.55;9.05;;;;;;;;;;5039760;28;20590;-85
2022/03/20 14:22:53;;;;;;;16.45;9.60;;;;;;;;;;5043560;28;20034;-82
2022/03/20 14:25:35;;;;;;;14.80;8.85;;;;;;;;;;5038759;28;20057;-83
2022/03/20 14:28:02;;;;;;;17.45;9.23;;;;;;;;;;5015587;28;20077;-82
2022/03/20 14:41:35;;;;;;;18.02;10.07;;;;;;;;;;5024742;28;20056;-84
2022/03/20 14:44:06;;;;;;;18.73;10.30;;;;;;;;;;5024431;28;20021;-85
2022/03/20 14:46:31;;;;;;;19.85;10.45;;;;;;;;;;5024216;28;20077;-85
2022/03/20 14:48:58;;;;;;;23.77;10.50;;;;;;;;;;5030918;28;20064;-85
2022/03/20 14:51:24;;;;;;;22.55;12.63;;;;;;;;;;5039963;28;20025;-84
2022/03/20 14:53:50;;;;;;;20.42;10.23;;;;;;;;;;5041258;28;20032;-83
2022/03/20 14:56:16;;;;;;;21.52;11.25;;;;;;;;;;5041060;28;20037;-83
2022/03/20 14:58:41;;;;;;;18.35;10.70;;;;;;;;;;5043788;28;20026;-84
2022/03/20 15:04:28;;;;;;;19.53;11.47;;;;;;;;;;5040449;28;20041;-84
2022/03/20 15:06:54;;;;;;;16.17;10.55;;;;;;;;;;5037079;28;20026;-83
2022/03/20 15:15:27;;;;;;;19.95;11.57;;;;;;;;;;4964843;23;1175441;-84
2022/03/20 15:17:52;;;;;;;18.73;10.35;;;;;;;;;;4997871;28;20026;-86
2022/03/20 15:20:17;;;;;;;19.70;10.25;;;;;;;;;;5002418;28;20100;-83
2022/03/20 15:22:43;;;;;;;20.45;11.25;;;;;;;;;;5000667;28;20056;-84
2022/03/20 15:25:09;;;;;;;19.50;10.20;;;;;;;;;;5005629;28;20033;-84